Time;durP1;ratioP1;P1;durP2;ratioP2;P2;SDS_P1;SDS_P2;PMS_P1;PMS_P2;Temp;Humidity;BMP_temperature;BMP_pressure;BME280_temperature;BME280_humidity;BME280_pressure;Samples;Min_cycle;Max_cycle;Signal;HPM_P1;HPM_P2
2022/03/07 00:00:04;;;;;;;0.70;0.70;;;;;;;5.40;100.00;94950.63;5132686;28;20422;-57
2022/03/07 00:02:32;;;;;;;4.90;1.60;;;;;;;5.13;100.00;94958.47;5132104;28;20509;-58
2022/03/07 00:05:01;;;;;;;1.80;1.70;;;;;;;5.02;100.00;94956.75;5132286;28;20422;-58
2022/03/07 00:07:29;;;;;;;0.73;0.73;;;;;;;5.20;100.00;94956.44;5132097;28;20438;-57
2022/03/07 00:09:59;;;;;;;1.60;1.27;;;;;;;5.15;100.00;94956.38;5132052;28;20425;-58
2022/03/07 00:12:27;;;;;;;0.50;0.50;;;;;;;4.94;100.00;94955.34;5132210;28;20910;-58
2022/03/07 00:14:56;;;;;;;0.70;0.70;;;;;;;4.92;100.00;94956.59;5132149;28;20927;-58
2022/03/07 00:17:26;;;;;;;4.00;0.53;;;;;;;4.96;100.00;94958.50;5132596;28;20545;-58
2022/03/07 00:19:54;;;;;;;0.70;0.70;;;;;;;5.06;100.00;94955.22;5131630;28;20427;-58
2022/03/07 00:22:22;;;;;;;1.30;1.23;;;;;;;5.17;100.00;94961.38;5130946;27;20557;-56
2022/03/07 00:24:51;;;;;;;0.30;0.30;;;;;;;5.19;100.00;94965.38;5131924;28;20456;-57
2022/03/07 00:27:19;;;;;;;0.80;0.80;;;;;;;5.29;100.00;94962.09;5133503;27;20462;-57
2022/03/07 00:29:47;;;;;;;0.97;0.53;;;;;;;5.23;100.00;94963.84;5135978;27;20505;-59
2022/03/07 00:32:16;;;;;;;0.87;0.40;;;;;;;5.26;100.00;94962.56;5136096;27;20415;-57
2022/03/07 00:34:45;;;;;;;0.60;0.60;;;;;;;5.43;100.00;94965.91;5136086;27;20856;-57
2022/03/07 00:37:15;;;;;;;0.83;0.83;;;;;;;5.41;100.00;94960.13;5135913;27;20569;-57
2022/03/07 00:39:43;;;;;;;0.30;0.27;;;;;;;5.33;100.00;94963.97;5136138;27;20872;-57
2022/03/07 00:42:12;;;;;;;2.87;1.13;;;;;;;5.31;100.00;94960.00;5135754;27;20513;-57
2022/03/07 00:44:41;;;;;;;0.30;0.30;;;;;;;5.48;100.00;94958.91;5135511;27;20503;-57
2022/03/07 00:47:10;;;;;;;1.10;1.10;;;;;;;5.21;100.00;94957.25;5135651;27;20410;-57
2022/03/07 00:49:38;;;;;;;1.03;1.03;;;;;;;5.10;100.00;94953.69;5136109;27;20509;-57
2022/03/07 00:52:08;;;;;;;0.33;0.30;;;;;;;4.63;100.00;94921.03;5135238;27;20483;-57
2022/03/07 00:54:37;;;;;;;0.73;0.40;;;;;;;5.13;100.00;94955.84;5135737;27;20469;-57
2022/03/07 00:57:05;;;;;;;0.47;0.33;;;;;;;4.98;100.00;94960.91;5135330;27;20454;-57
2022/03/07 00:59:34;;;;;;;0.30;0.20;;;;;;;4.77;100.00;94930.16;5135521;27;20438;-57
2022/03/07 01:02:02;;;;;;;0.90;0.90;;;;;;;5.03;100.00;94955.72;5135052;27;20831;-57
2022/03/07 01:04:31;;;;;;;0.60;0.60;;;;;;;4.71;100.00;94947.66;5135780;27;20791;-57
2022/03/07 01:07:02;;;;;;;0.60;0.60;;;;;;;4.90;100.00;94958.69;5135422;27;20430;-57
2022/03/07 01:09:32;;;;;;;0.30;0.30;;;;;;;5.12;100.00;94955.03;5135098;27;20490;-57
2022/03/07 01:12:00;;;;;;;0.83;0.83;;;;;;;5.30;100.00;94951.31;5135629;27;20418;-57
2022/03/07 01:14:29;;;;;;;0.30;0.20;;;;;;;5.28;100.00;94947.34;5135237;27;20422;-57
2022/03/07 01:16:57;;;;;;;0.40;0.40;;;;;;;5.34;100.00;94944.53;5134979;27;20495;-57
2022/03/07 01:19:25;;;;;;;0.80;0.80;;;;;;;5.38;100.00;94942.22;5134760;27;20434;-57
2022/03/07 01:21:54;;;;;;;0.30;0.30;;;;;;;5.33;100.00;94940.31;5134348;27;20510;-57
2022/03/07 01:24:22;;;;;;;0.93;0.83;;;;;;;5.29;100.00;94946.31;5135137;27;20410;-57
2022/03/07 01:26:52;;;;;;;0.50;0.50;;;;;;;5.21;100.00;94938.88;5134285;27;20930;-57
2022/03/07 01:29:21;;;;;;;0.73;0.67;;;;;;;5.05;100.00;94912.41;5134994;27;20415;-57
2022/03/07 01:31:50;;;;;;;0.83;0.83;;;;;;;5.18;100.00;94931.47;5134856;27;20461;-57
2022/03/07 01:34:18;;;;;;;0.90;0.90;;;;;;;5.18;100.00;94936.72;5134823;27;20434;-57
2022/03/07 01:36:47;;;;;;;1.90;0.80;;;;;;;5.27;100.00;94927.34;5134867;27;21214;-57
2022/03/07 01:39:15;;;;;;;0.40;0.33;;;;;;;5.38;100.00;94922.00;5133618;27;20959;-57
2022/03/07 01:41:44;;;;;;;0.30;0.20;;;;;;;5.11;100.00;94924.56;5134202;27;20426;-57
2022/03/07 01:44:23;;;;;;;0.30;0.20;;;;;;;4.47;100.00;94857.06;5135676;27;20450;-57
2022/03/07 01:46:52;;;;;;;0.30;0.30;;;;;;;4.98;100.00;94932.78;5135098;27;20487;-57
2022/03/07 01:49:21;;;;;;;0.73;0.73;;;;;;;5.05;100.00;94920.28;5134686;27;20418;-58
2022/03/07 01:51:50;;;;;;;0.40;0.37;;;;;;;5.15;100.00;94922.25;5134509;27;20825;-57
2022/03/07 01:54:20;;;;;;;0.40;0.30;;;;;;;5.06;100.00;94927.13;5134029;27;20434;-57
2022/03/07 01:56:50;;;;;;;3.80;0.40;;;;;;;5.10;100.00;94920.34;5134183;27;20423;-57
2022/03/07 01:59:23;;;;;;;0.40;0.40;;;;;;;5.31;100.00;94920.59;5134170;27;20861;-58
2022/03/07 02:01:52;;;;;;;0.93;0.57;;;;;;;5.47;100.00;94959.13;5133834;27;20978;-57
2022/03/07 02:04:21;;;;;;;1.70;0.73;;;;;;;5.53;100.00;94919.53;5134104;27;20957;-57
2022/03/07 02:06:49;;;;;;;0.43;0.43;;;;;;;5.48;100.00;94927.34;5134197;27;20430;-57
2022/03/07 02:09:18;;;;;;;0.50;0.50;;;;;;;5.42;100.00;94917.03;5134371;27;20915;-57
2022/03/07 02:11:47;;;;;;;0.60;0.60;;;;;;;5.35;100.00;94927.72;5134412;27;20422;-57
2022/03/07 02:14:17;;;;;;;0.40;0.40;;;;;;;5.47;100.00;94932.84;5134205;27;20483;-57
2022/03/07 02:16:47;;;;;;;0.30;0.20;;;;;;;5.49;100.00;94922.91;5133759;27;20529;-57
2022/03/07 02:19:16;;;;;;;0.30;0.20;;;;;;;5.52;100.00;94928.44;5133819;27;20457;-57
2022/03/07 02:21:47;;;;;;;11.20;0.93;;;;;;;5.37;100.00;94932.72;5133740;27;20457;-57
2022/03/07 02:24:19;;;;;;;0.97;0.97;;;;;;;5.33;100.00;94936.91;5133959;27;20468;-57
2022/03/07 02:26:56;;;;;;;0.30;0.20;;;;;;;5.18;100.00;94913.09;5133607;27;20986;-57
2022/03/07 02:29:25;;;;;;;0.70;0.70;;;;;;;4.93;100.00;94937.97;5133708;27;20454;-57
2022/03/07 02:31:53;;;;;;;0.70;0.70;;;;;;;5.14;100.00;94942.47;5133465;27;20946;-57
2022/03/07 02:34:22;;;;;;;0.57;0.43;;;;;;;5.30;100.00;94940.00;5133129;27;20878;-57
2022/03/07 02:36:50;;;;;;;0.30;0.20;;;;;;;5.27;100.00;94936.03;5133420;27;20423;-57
2022/03/07 02:39:21;;;;;;;0.80;0.33;;;;;;;4.51;100.00;94847.66;5133481;27;20474;-57
2022/03/07 02:41:49;;;;;;;0.30;0.20;;;;;;;4.88;100.00;94935.28;5132874;27;20434;-57
2022/03/07 02:44:18;;;;;;;1.40;1.23;;;;;;;5.19;100.00;94936.47;5133175;27;20423;-57
2022/03/07 02:46:46;;;;;;;1.37;0.83;;;;;;;5.31;100.00;94947.66;5133439;27;20410;-57
2022/03/07 02:49:15;;;;;;;0.30;0.10;;;;;;;5.19;100.00;94943.56;5133150;27;20491;-57
2022/03/07 02:51:45;;;;;;;0.40;0.40;;;;;;;5.18;100.00;94936.72;5132413;27;20506;-57
2022/03/07 02:54:13;;;;;;;0.30;0.20;;;;;;;5.28;100.00;94952.59;5133191;27;20459;-57
2022/03/07 02:56:44;;;;;;;1.73;0.93;;;;;;;5.38;100.00;94944.84;5132972;27;20474;-57
2022/03/07 02:59:13;;;;;;;0.33;0.30;;;;;;;5.41;100.00;94944.34;5132819;27;21061;-57
2022/03/07 03:01:43;;;;;;;0.30;0.20;;;;;;;5.46;100.00;94939.16;5133010;27;20458;-57
2022/03/07 03:04:11;;;;;;;0.40;0.40;;;;;;;5.40;100.00;94945.38;5133371;27;20426;-57
2022/03/07 03:06:41;;;;;;;0.30;0.20;;;;;;;5.37;100.00;94951.94;5133335;27;20489;-57
2022/03/07 03:09:10;;;;;;;4.30;0.97;;;;;;;5.48;100.00;94944.94;5133223;27;20510;-57
2022/03/07 03:11:38;;;;;;;0.30;0.20;;;;;;;5.42;100.00;94943.28;5132957;27;20793;-57
2022/03/07 03:14:08;;;;;;;0.57;0.57;;;;;;;5.46;100.00;94945.22;5132556;27;21021;-57
2022/03/07 03:16:36;;;;;;;7.10;2.00;;;;;;;5.40;100.00;94940.94;5132879;27;21241;-57
2022/03/07 03:19:05;;;;;;;0.50;0.50;;;;;;;5.21;100.00;94944.91;5132478;27;20458;-57
2022/03/07 03:21:33;;;;;;;0.73;0.43;;;;;;;5.13;100.00;94946.13;5132699;27;20430;-57
2022/03/07 03:24:02;;;;;;;0.53;0.53;;;;;;;5.21;100.00;94946.75;5092344;28;20425;-57
2022/03/07 03:26:31;;;;;;;0.30;0.20;;;;;;;5.32;100.00;94951.88;5091952;28;20921;-57
2022/03/07 03:28:59;;;;;;;0.40;0.40;;;;;;;5.35;100.00;94946.13;5092278;28;20428;-57
2022/03/07 03:31:29;;;;;;;0.73;0.73;;;;;;;5.13;100.00;94917.22;5091586;28;20522;-57
2022/03/07 03:33:58;;;;;;;0.40;0.30;;;;;;;4.95;100.00;94954.31;5091733;28;20428;-57
2022/03/07 03:36:26;;;;;;;0.40;0.30;;;;;;;5.15;100.00;94951.13;5091845;28;20428;-57
2022/03/07 03:38:58;;;;;;;0.40;0.30;;;;;;;5.14;100.00;94947.72;5091547;28;20464;-57
2022/03/07 03:41:26;;;;;;;1.57;1.47;;;;;;;5.32;100.00;94937.94;5091758;28;20435;-57
2022/03/07 03:43:54;;;;;;;0.30;0.20;;;;;;;5.36;100.00;94949.56;5091656;28;20519;-57
2022/03/07 03:46:23;;;;;;;0.40;0.40;;;;;;;5.25;100.00;94948.63;5092099;28;20515;-57
2022/03/07 03:48:53;;;;;;;2.10;2.10;;;;;;;5.06;100.00;94939.44;5091430;28;20424;-57
2022/03/07 03:51:22;;;;;;;0.30;0.20;;;;;;;4.34;100.00;94942.16;5091592;28;20873;-57
2022/03/07 03:53:50;;;;;;;0.33;0.33;;;;;;;4.39;100.00;94954.53;5092150;28;20870;-57
2022/03/07 03:56:19;;;;;;;0.60;0.60;;;;;;;4.17;100.00;94948.44;5092724;28;20860;-57
2022/03/07 03:58:47;;;;;;;0.50;0.40;;;;;;;4.03;100.00;94944.50;5091563;28;21018;-57
2022/03/07 04:01:15;;;;;;;0.30;0.20;;;;;;;4.25;100.00;94940.16;5091298;28;20463;-57
2022/03/07 04:03:44;;;;;;;0.30;0.20;;;;;;;4.31;100.00;94947.88;5095081;28;20499;-57
2022/03/07 04:06:14;;;;;;;0.37;0.30;;;;;;;4.34;100.00;94941.34;5095626;28;20428;-57
2022/03/07 04:08:50;;;;;;;0.30;0.30;;;;;;;4.62;100.00;94935.19;5095053;28;20504;-57
2022/03/07 04:11:18;;;;;;;0.30;0.20;;;;;;;4.82;100.00;94938.09;5095035;28;20459;-57
2022/03/07 04:13:46;;;;;;;0.60;0.60;;;;;;;4.93;100.00;94939.84;5095193;28;20424;-57
2022/03/07 04:16:15;;;;;;;0.30;0.20;;;;;;;4.55;100.00;94935.38;5095435;28;20450;-57
2022/03/07 04:18:44;;;;;;;0.30;0.30;;;;;;;4.47;100.00;94936.56;5094599;28;20968;-57
2022/03/07 04:21:15;;;;;;;3.50;0.93;;;;;;;4.55;100.00;94940.63;5094528;28;20553;-57
2022/03/07 04:23:44;;;;;;;2.63;2.53;;;;;;;4.32;100.00;94946.03;5130947;27;20470;-57
2022/03/07 04:26:13;;;;;;;7.23;4.13;;;;;;;4.65;100.00;94950.47;5135999;27;20415;-57
2022/03/07 04:28:42;;;;;;;0.37;0.30;;;;;;;4.86;100.00;94932.13;5136173;27;20419;-57
2022/03/07 04:31:11;;;;;;;2.73;2.57;;;;;;;5.12;100.00;94933.22;5135931;27;20426;-57
2022/03/07 04:33:39;;;;;;;1.10;1.10;;;;;;;5.23;100.00;94934.97;5135488;27;20518;-57
2022/03/07 04:36:08;;;;;;;2.10;2.00;;;;;;;4.82;100.00;94938.91;5136482;27;20429;-57
2022/03/07 04:38:38;;;;;;;0.30;0.30;;;;;;;4.86;100.00;94933.94;5135668;27;20548;-57
2022/03/07 04:41:06;;;;;;;0.60;0.60;;;;;;;5.04;100.00;94923.16;5135987;27;20568;-57
2022/03/07 04:43:35;;;;;;;0.33;0.30;;;;;;;5.18;100.00;94923.59;5134880;27;20491;-57
2022/03/07 04:46:04;;;;;;;0.60;0.60;;;;;;;4.80;100.00;94880.59;5136119;27;20510;-57
2022/03/07 04:48:32;;;;;;;0.50;0.43;;;;;;;4.97;100.00;94925.97;5135734;27;20438;-57
2022/03/07 04:51:01;;;;;;;1.73;1.07;;;;;;;4.89;100.00;94920.31;5135446;27;20458;-57
2022/03/07 04:53:29;;;;;;;0.30;0.30;;;;;;;5.11;100.00;94929.00;5135512;27;20870;-57
2022/03/07 04:55:59;;;;;;;1.40;0.70;;;;;;;5.15;100.00;94917.00;5135384;27;20527;-57
2022/03/07 04:58:27;;;;;;;11.00;0.37;;;;;;;5.21;100.00;94928.34;5135142;27;20430;-57
2022/03/07 05:00:56;;;;;;;0.60;0.60;;;;;;;5.00;100.00;94927.31;5135131;27;20517;-57
2022/03/07 05:03:25;;;;;;;0.83;0.83;;;;;;;4.97;100.00;94931.22;5135227;27;20425;-57
2022/03/07 05:05:53;;;;;;;0.30;0.20;;;;;;;4.88;100.00;94930.03;5135530;27;20940;-57
2022/03/07 05:08:22;;;;;;;0.30;0.23;;;;;;;4.87;100.00;94948.66;5134928;27;20454;-57
2022/03/07 05:10:50;;;;;;;0.53;0.53;;;;;;;4.93;100.00;94930.09;5135039;27;20517;-57
2022/03/07 05:13:20;;;;;;;0.50;0.50;;;;;;;5.00;100.00;94933.38;5134198;27;20473;-57
2022/03/07 05:15:48;;;;;;;0.30;0.20;;;;;;;4.87;100.00;94925.84;5134744;27;20513;-57
2022/03/07 05:18:21;;;;;;;0.53;0.53;;;;;;;4.87;100.00;94931.09;5135231;27;20414;-57
2022/03/07 05:20:50;;;;;;;0.43;0.40;;;;;;;4.93;100.00;94935.34;5134853;27;20894;-57
2022/03/07 05:23:25;;;;;;;0.30;0.30;;;;;;;4.98;100.00;94927.53;5134845;27;20473;-57
2022/03/07 05:25:53;;;;;;;0.83;0.83;;;;;;;5.06;100.00;94931.56;5134277;27;20419;-57
2022/03/07 05:28:23;;;;;;;1.13;1.13;;;;;;;4.90;100.00;94941.13;5134954;27;20427;-57
2022/03/07 05:30:51;;;;;;;0.83;0.83;;;;;;;5.03;100.00;94942.59;5134339;27;20582;-57
2022/03/07 05:33:20;;;;;;;4.00;0.40;;;;;;;5.07;100.00;94939.22;5134249;27;20513;-57
2022/03/07 05:35:49;;;;;;;0.83;0.83;;;;;;;5.05;100.00;94920.28;5134085;27;20882;-57
2022/03/07 05:38:18;;;;;;;0.50;0.50;;;;;;;5.38;100.00;94937.75;5134644;27;20433;-57
2022/03/07 05:40:48;;;;;;;1.47;1.47;;;;;;;5.36;100.00;94933.78;5134071;27;20557;-57
2022/03/07 05:43:16;;;;;;;1.03;1.03;;;;;;;5.43;100.00;94942.28;5134318;27;20507;-57
2022/03/07 05:45:46;;;;;;;0.60;0.60;;;;;;;5.07;100.00;94944.47;5133933;27;20509;-58
2022/03/07 05:48:15;;;;;;;0.43;0.43;;;;;;;5.02;100.00;94941.78;5133859;27;20419;-56
2022/03/07 05:50:43;;;;;;;0.40;0.37;;;;;;;5.32;100.00;94935.31;5134255;27;20987;-57
2022/03/07 05:53:11;;;;;;;0.40;0.40;;;;;;;5.26;100.00;94939.72;5133765;27;20427;-58
2022/03/07 05:55:41;;;;;;;0.40;0.40;;;;;;;5.47;100.00;94931.00;5133629;27;20426;-57
2022/03/07 05:58:10;;;;;;;1.40;1.40;;;;;;;5.87;100.00;94929.88;5133782;27;20427;-57
2022/03/07 06:00:38;;;;;;;0.30;0.20;;;;;;;5.78;100.00;94927.66;5133993;27;20498;-57
2022/03/07 06:03:08;;;;;;;0.83;0.83;;;;;;;5.08;100.00;94832.34;5134138;27;20458;-58
2022/03/07 06:05:37;;;;;;;2.00;0.70;;;;;;;5.88;100.00;94929.63;5136021;27;20477;-57
2022/03/07 06:08:06;;;;;;;0.30;0.20;;;;;;;5.55;100.00;94937.66;5134120;27;20450;-57
2022/03/07 06:10:35;;;;;;;0.30;0.20;;;;;;;5.81;100.00;94926.38;5133813;27;20438;-57
2022/03/07 06:13:03;;;;;;;0.63;0.63;;;;;;;5.34;100.00;94930.63;5133911;27;20462;-57
2022/03/07 06:15:32;;;;;;;0.40;0.30;;;;;;;5.25;100.00;94937.31;5133698;27;20492;-57
2022/03/07 06:18:00;;;;;;;0.50;0.30;;;;;;;5.18;100.00;94937.53;5134109;27;20439;-57
2022/03/07 06:20:31;;;;;;;0.43;0.43;;;;;;;5.27;100.00;94948.38;5133457;27;21208;-57
2022/03/07 06:23:00;;;;;;;0.53;0.53;;;;;;;5.46;100.00;94939.97;5133213;27;20514;-57
2022/03/07 06:25:29;;;;;;;0.40;0.30;;;;;;;5.59;100.00;94949.28;5133185;27;20427;-57
2022/03/07 06:27:58;;;;;;;0.93;0.80;;;;;;;5.48;100.00;94947.59;5133865;27;20869;-57
2022/03/07 06:30:26;;;;;;;0.30;0.30;;;;;;;5.63;100.00;94947.75;5133608;27;20920;-59
2022/03/07 06:32:54;;;;;;;0.80;0.80;;;;;;;5.81;100.00;94954.50;5133803;27;20462;-58
2022/03/07 06:35:23;;;;;;;0.73;0.60;;;;;;;5.73;100.00;94958.38;5132995;27;20427;-58
2022/03/07 06:37:54;;;;;;;0.30;0.20;;;;;;;5.88;100.00;94957.75;5133432;27;20966;-58
2022/03/07 06:40:23;;;;;;;0.30;0.20;;;;;;;5.76;100.00;94953.41;5132946;27;20978;-58
2022/03/07 06:42:52;;;;;;;0.77;0.57;;;;;;;6.00;100.00;94945.22;5133651;27;20839;-58
2022/03/07 06:45:20;;;;;;;0.40;0.30;;;;;;;6.35;99.55;94956.06;5132827;27;21030;-58
2022/03/07 06:47:49;;;;;;;0.67;0.60;;;;;;;6.39;99.91;94962.44;5133311;27;20423;-57
2022/03/07 06:50:18;;;;;;;0.50;0.50;;;;;;;6.06;99.45;94950.31;5133013;27;20463;-58
2022/03/07 06:52:46;;;;;;;0.80;0.80;;;;;;;6.83;97.94;94945.34;5133121;27;20451;-57
2022/03/07 06:55:17;;;;;;;0.50;0.33;;;;;;;6.32;95.08;94949.47;5132966;27;20423;-58
2022/03/07 06:57:46;;;;;;;1.73;1.63;;;;;;;6.09;95.28;94955.06;5133042;27;20470;-58
2022/03/07 07:00:16;;;;;;;0.60;0.60;;;;;;;6.30;96.49;94951.56;5132829;27;20474;-58
2022/03/07 07:02:45;;;;;;;0.40;0.30;;;;;;;6.89;90.96;94948.81;5133000;27;20436;-58
2022/03/07 07:05:14;;;;;;;0.77;0.77;;;;;;;7.04;93.23;94951.53;5132930;27;20792;-58
2022/03/07 07:07:43;;;;;;;0.40;0.40;;;;;;;6.84;88.32;94952.22;5132917;27;20868;-58
2022/03/07 07:10:13;;;;;;;0.50;0.30;;;;;;;6.74;93.90;94951.34;5132737;27;20517;-58
2022/03/07 07:12:43;;;;;;;0.40;0.37;;;;;;;6.71;93.23;94954.47;5132731;27;20461;-58
2022/03/07 07:15:12;;;;;;;1.90;1.03;;;;;;;6.61;90.93;94957.06;5132876;27;20414;-59
2022/03/07 07:17:41;;;;;;;0.30;0.30;;;;;;;7.12;90.43;94952.88;5132639;27;20430;-58
2022/03/07 07:20:11;;;;;;;0.30;0.20;;;;;;;7.10;85.95;94947.88;5132873;27;20486;-58
2022/03/07 07:22:40;;;;;;;0.30;0.30;;;;;;;7.28;81.68;94951.91;5132771;27;20557;-57
2022/03/07 07:25:10;;;;;;;0.40;0.30;;;;;;;7.83;81.34;94948.66;5132680;27;20434;-57
2022/03/07 07:27:39;;;;;;;0.50;0.40;;;;;;;7.65;80.95;94932.28;5132549;27;20921;-57
2022/03/07 07:30:10;;;;;;;0.30;0.20;;;;;;;8.10;76.40;94938.66;5132674;27;20438;-57
2022/03/07 07:32:40;;;;;;;1.70;0.77;;;;;;;7.91;76.86;94948.16;5132853;27;20437;-56
2022/03/07 07:35:09;;;;;;;0.80;0.80;;;;;;;7.69;85.03;94949.16;5132735;28;20418;-56
2022/03/07 07:37:38;;;;;;;0.50;0.50;;;;;;;7.50;80.78;94863.66;5136766;27;20463;-56
2022/03/07 07:40:08;;;;;;;0.83;0.83;;;;;;;7.54;78.16;94950.94;5139591;27;20482;-56
2022/03/07 07:42:36;;;;;;;0.40;0.30;;;;;;;8.25;87.98;94951.88;5139133;27;20461;-59
2022/03/07 07:45:05;;;;;;;0.30;0.20;;;;;;;8.77;75.72;94955.09;5139165;27;20985;-56
2022/03/07 07:47:35;;;;;;;1.83;1.83;;;;;;;9.14;76.00;94944.16;5139361;27;20446;-56
2022/03/07 07:50:04;;;;;;;0.30;0.30;;;;;;;8.07;76.37;94955.06;5139405;27;20483;-55
2022/03/07 07:52:32;;;;;;;0.37;0.30;;;;;;;8.40;70.91;94949.28;5139141;27;20863;-55
2022/03/07 07:55:02;;;;;;;0.50;0.50;;;;;;;8.92;69.67;94949.78;5139122;27;21000;-55
2022/03/07 07:57:30;;;;;;;0.77;0.77;;;;;;;8.39;72.71;94949.56;5139227;27;20934;-54
2022/03/07 07:59:59;;;;;;;0.40;0.40;;;;;;;8.17;66.89;94963.75;5138616;27;20430;-55
2022/03/07 08:02:47;;;;;;;0.87;0.60;;;;;;;8.74;65.96;94952.19;5139339;27;20430;-55
2022/03/07 08:05:16;;;;;;;0.67;0.67;;;;;;;9.42;65.96;94940.91;5139462;27;20457;-55
2022/03/07 08:07:45;;;;;;;0.40;0.30;;;;;;;9.43;63.93;94945.16;5139348;27;20513;-55
2022/03/07 08:10:15;;;;;;;0.30;0.20;;;;;;;9.62;65.02;94945.31;5139178;27;20479;-55
2022/03/07 08:12:44;;;;;;;1.03;0.50;;;;;;;8.95;68.43;94943.16;5138851;27;20491;-55
2022/03/07 08:15:18;;;;;;;0.40;0.30;;;;;;;8.55;68.21;94944.00;5139127;27;20996;-55
2022/03/07 08:17:50;;;;;;;3.33;0.73;;;;;;;7.89;72.80;94942.34;5139624;27;20509;-55
2022/03/07 08:20:21;;;;;;;0.70;0.70;;;;;;;8.52;68.91;94952.47;5138910;27;20429;-56
2022/03/07 08:22:50;;;;;;;0.73;0.73;;;;;;;8.54;72.70;94950.34;5138768;27;20468;-55
2022/03/07 08:25:19;;;;;;;0.87;0.87;;;;;;;8.33;82.58;94946.13;5138467;27;20434;-55
2022/03/07 08:27:48;;;;;;;1.10;1.10;;;;;;;8.37;83.72;94955.13;5139106;27;20423;-55
2022/03/07 08:30:19;;;;;;;3.47;0.53;;;;;;;8.21;83.00;94956.13;5138745;27;20422;-55
2022/03/07 08:32:52;;;;;;;1.47;0.70;;;;;;;8.40;79.37;94906.25;5138757;27;20468;-55
2022/03/07 08:35:21;;;;;;;0.40;0.30;;;;;;;9.18;78.53;94952.38;5138512;27;20521;-56
2022/03/07 08:37:51;;;;;;;0.60;0.60;;;;;;;8.08;75.88;94894.09;5139234;27;20426;-56
2022/03/07 08:40:21;;;;;;;0.93;0.93;;;;;;;8.28;80.24;94946.13;5138723;27;20426;-56
2022/03/07 08:42:50;;;;;;;0.40;0.40;;;;;;;8.25;78.50;94951.88;5138694;27;20852;-55
2022/03/07 08:45:21;;;;;;;0.33;0.30;;;;;;;8.22;78.06;94873.25;5139109;27;20817;-55
2022/03/07 08:48:08;;;;;;;0.60;0.60;;;;;;;8.40;77.66;94951.91;5138137;27;20818;-56
2022/03/07 08:50:36;;;;;;;1.03;0.90;;;;;;;8.30;77.38;94855.03;5135831;27;20523;-56
2022/03/07 08:53:05;;;;;;;4.73;0.83;;;;;;;8.43;76.75;94951.41;5135775;27;20419;-55
2022/03/07 08:55:33;;;;;;;0.53;0.53;;;;;;;8.12;77.13;94952.44;5135778;27;20419;-55
2022/03/07 08:58:02;;;;;;;2.20;2.10;;;;;;;8.60;75.40;94946.63;5135566;27;20454;-55
2022/03/07 09:00:30;;;;;;;6.10;0.93;;;;;;;8.75;73.23;94948.50;5135462;27;20507;-55
2022/03/07 09:02:59;;;;;;;0.60;0.30;;;;;;;9.26;73.92;94943.88;5135340;27;20422;-56
2022/03/07 09:05:29;;;;;;;0.43;0.43;;;;;;;9.81;64.36;94942.84;5134744;27;20426;-55
2022/03/07 09:07:58;;;;;;;2.30;0.50;;;;;;;9.63;62.49;94944.25;5135441;27;20457;-55
2022/03/07 09:10:26;;;;;;;1.37;1.27;;;;;;;8.76;72.00;94952.69;5135030;27;20469;-55
2022/03/07 09:12:55;;;;;;;1.37;0.83;;;;;;;8.71;71.85;94950.84;5135352;27;20467;-55
2022/03/07 09:15:23;;;;;;;7.63;1.07;;;;;;;8.79;72.67;94947.69;5135005;27;20477;-55
2022/03/07 09:17:52;;;;;;;0.90;0.90;;;;;;;8.54;73.62;94950.34;5135223;27;20435;-55
2022/03/07 09:20:20;;;;;;;0.57;0.57;;;;;;;8.46;70.03;94935.03;5134887;27;20422;-55
2022/03/07 09:22:55;;;;;;;2.57;0.60;;;;;;;9.01;72.02;94943.94;5134577;27;20845;-55
2022/03/07 09:25:25;;;;;;;1.17;1.03;;;;;;;9.25;68.59;94950.22;5134859;27;20816;-55
2022/03/07 09:27:53;;;;;;;1.40;1.40;;;;;;;9.06;70.08;94925.44;5135034;27;20430;-55
2022/03/07 09:30:21;;;;;;;0.50;0.50;;;;;;;9.44;66.03;94937.97;5134848;27;20465;-55
2022/03/07 09:32:50;;;;;;;1.13;1.13;;;;;;;9.48;65.69;94939.03;5134921;27;20431;-55
2022/03/07 09:35:18;;;;;;;1.57;1.50;;;;;;;9.44;64.54;94890.38;5134774;27;20498;-55
2022/03/07 09:37:47;;;;;;;0.40;0.30;;;;;;;9.90;64.54;94925.31;5134504;27;20430;-55
2022/03/07 09:40:17;;;;;;;1.20;1.20;;;;;;;9.12;66.88;94929.63;5134522;27;20825;-55
2022/03/07 09:42:46;;;;;;;0.80;0.80;;;;;;;8.65;68.90;94925.50;5134656;27;20477;-55
2022/03/07 09:45:14;;;;;;;2.80;0.93;;;;;;;9.02;69.75;94929.66;5134460;27;20451;-55
2022/03/07 09:47:44;;;;;;;0.63;0.63;;;;;;;9.40;67.86;94931.66;5134318;27;20426;-56
2022/03/07 09:50:13;;;;;;;0.80;0.80;;;;;;;9.08;68.35;94928.59;5134713;27;20447;-55
2022/03/07 09:52:45;;;;;;;1.63;1.30;;;;;;;8.64;69.28;94937.13;5134075;27;20472;-56
2022/03/07 09:55:16;;;;;;;1.47;1.47;;;;;;;9.08;69.49;94920.66;5133914;27;20418;-56
2022/03/07 09:57:47;;;;;;;0.40;0.30;;;;;;;9.74;69.49;94918.53;5134207;27;20456;-56
2022/03/07 10:00:18;;;;;;;0.40;0.40;;;;;;;9.92;66.16;94926.63;5134788;27;20473;-55
2022/03/07 10:02:54;;;;;;;1.80;0.77;;;;;;;9.89;63.13;94921.88;5135473;27;20462;-55
2022/03/07 10:05:27;;;;;;;0.50;0.40;;;;;;;9.77;63.38;94926.72;5135387;27;20430;-56
2022/03/07 10:07:57;;;;;;;2.20;1.57;;;;;;;9.33;64.58;94928.53;5135430;27;20431;-56
2022/03/07 10:10:30;;;;;;;3.57;0.90;;;;;;;9.26;63.76;94928.78;5134738;27;20841;-56
2022/03/07 10:13:07;;;;;;;0.40;0.40;;;;;;;9.84;62.30;94921.91;5134820;27;20454;-57
2022/03/07 10:15:36;;;;;;;0.70;0.70;;;;;;;9.17;65.35;94930.41;5134753;27;20414;-56
2022/03/07 10:18:06;;;;;;;0.50;0.50;;;;;;;9.17;66.33;94913.75;5135768;27;20495;-56
2022/03/07 10:20:35;;;;;;;1.60;1.50;;;;;;;8.85;71.55;94927.34;5134811;27;20434;-56
2022/03/07 10:23:10;;;;;;;1.47;1.37;;;;;;;8.88;73.58;94929.41;5133740;27;20562;-56
2022/03/07 10:25:42;;;;;;;0.30;0.30;;;;;;;9.18;67.48;94920.63;5134215;27;20407;-56
2022/03/07 10:28:13;;;;;;;1.57;1.57;;;;;;;9.75;66.00;94917.47;5133553;27;20419;-56
2022/03/07 10:30:42;;;;;;;0.57;0.57;;;;;;;10.15;64.80;94920.69;5134024;27;20454;-56
2022/03/07 10:33:13;;;;;;;0.77;0.77;;;;;;;8.65;68.52;94790.00;5133757;27;20423;-56
2022/03/07 10:35:44;;;;;;;6.03;1.70;;;;;;;9.12;71.09;94898.72;5133684;27;20519;-56
2022/03/07 10:38:14;;;;;;;3.87;1.70;;;;;;;9.38;73.37;94908.13;5134266;27;20502;-56
2022/03/07 10:40:46;;;;;;;0.40;0.30;;;;;;;9.47;68.34;94905.69;5133514;27;20427;-56
2022/03/07 10:43:17;;;;;;;2.83;2.10;;;;;;;9.49;71.36;94895.63;5134446;27;20476;-56
2022/03/07 10:45:47;;;;;;;3.20;3.00;;;;;;;9.88;67.64;94893.03;5134820;27;20525;-56
2022/03/07 10:48:19;;;;;;;1.70;1.60;;;;;;;10.51;63.13;94885.97;5134454;27;20446;-56
2022/03/07 10:50:49;;;;;;;3.07;2.23;;;;;;;9.85;68.87;94891.75;5134000;27;20435;-56
2022/03/07 10:53:18;;;;;;;0.40;0.40;;;;;;;10.08;70.51;94887.59;5133893;27;20430;-54
2022/03/07 10:55:52;;;;;;;2.97;1.03;;;;;;;9.69;68.32;94887.59;5134581;27;20423;-55
2022/03/07 10:58:24;;;;;;;0.40;0.30;;;;;;;9.87;66.26;94857.84;5133513;27;20941;-54
2022/03/07 11:00:54;;;;;;;0.90;0.87;;;;;;;10.14;69.89;94870.66;5133641;27;20423;-55
2022/03/07 11:03:26;;;;;;;0.90;0.90;;;;;;;10.63;65.58;94870.47;5132810;27;20474;-55
2022/03/07 11:05:55;;;;;;;1.37;1.37;;;;;;;10.33;64.92;94876.06;5133081;27;20442;-54
2022/03/07 11:08:25;;;;;;;0.87;0.50;;;;;;;9.42;69.02;94805.22;5132953;27;20922;-55
2022/03/07 11:10:55;;;;;;;1.43;1.33;;;;;;;9.57;70.06;94874.69;5132511;27;20466;-55
2022/03/07 11:13:28;;;;;;;0.53;0.50;;;;;;;9.39;74.65;94798.63;5133151;27;20423;-55
2022/03/07 11:15:57;;;;;;;0.60;0.60;;;;;;;10.41;65.96;94872.81;5132759;27;20427;-55
2022/03/07 11:18:28;;;;;;;0.60;0.60;;;;;;;9.93;70.33;94851.44;5132826;27;20479;-56
2022/03/07 11:20:58;;;;;;;1.90;1.80;;;;;;;9.54;76.19;94864.66;5133027;27;20502;-56
2022/03/07 11:23:27;;;;;;;1.13;0.93;;;;;;;9.12;79.48;94874.13;5132254;27;20982;-56
2022/03/07 11:25:59;;;;;;;0.87;0.87;;;;;;;8.81;83.25;94870.78;5132920;27;20422;-56
2022/03/07 11:28:32;;;;;;;0.80;0.67;;;;;;;8.93;82.44;94871.28;5133426;27;20514;-57
2022/03/07 11:31:01;;;;;;;1.53;1.37;;;;;;;8.92;82.45;94869.69;5134037;27;20833;-57
2022/03/07 11:33:37;;;;;;;2.10;0.73;;;;;;;8.93;82.94;94866.78;5133581;27;20429;-57
2022/03/07 11:36:15;;;;;;;1.43;1.43;;;;;;;9.03;83.90;94867.81;5133270;27;20418;-57
2022/03/07 11:38:52;;;;;;;1.10;1.10;;;;;;;8.73;84.74;94868.69;5132676;28;20427;-57
2022/03/07 11:41:25;;;;;;;0.53;0.47;;;;;;;8.60;87.97;94869.25;5133393;27;20422;-57
2022/03/07 11:43:57;;;;;;;1.60;1.50;;;;;;;8.22;89.38;94831.00;5133795;28;20474;-56
2022/03/07 11:46:31;;;;;;;1.47;1.47;;;;;;;8.31;86.67;94858.47;5133408;27;20418;-59